sensor_id;sensor_type;location;lat;lon;timestamp;pressure;altitude;pressure_sealevel;temperature;humidity
65134;BME280;51713;40.700;-111.794;2022-08-01T00:00:46;84628.31;;;29.82;21.99
65134;BME280;51713;40.700;-111.794;2022-08-01T00:03:22;84629.32;;;30.07;21.65
65134;BME280;51713;40.700;-111.794;2022-08-01T00:06:01;84629.66;;;29.94;21.24
65134;BME280;51713;40.700;-111.794;2022-08-01T00:08:35;84630.34;;;30.36;20.82
65134;BME280;51713;40.700;-111.794;2022-08-01T00:11:08;84623.61;;;29.98;21.02
65134;BME280;51713;40.700;-111.794;2022-08-01T00:13:40;84622.84;;;29.67;20.89
65134;BME280;51713;40.700;-111.794;2022-08-01T00:16:16;84620.48;;;29.73;20.92
65134;BME280;51713;40.700;-111.794;2022-08-01T00:18:57;84618.50;;;29.72;20.71
65134;BME280;51713;40.700;-111.794;2022-08-01T00:21:26;84618.22;;;29.71;20.47
65134;BME280;51713;40.700;-111.794;2022-08-01T00:24:01;84616.09;;;29.79;20.48
65134;BME280;51713;40.700;-111.794;2022-08-01T00:26:34;84613.74;;;29.37;20.55
65134;BME280;51713;40.700;-111.794;2022-08-01T00:29:03;84613.25;;;29.47;20.50
65134;BME280;51713;40.700;-111.794;2022-08-01T00:31:32;84612.80;;;29.63;20.37
65134;BME280;51713;40.700;-111.794;2022-08-01T00:34:05;84607.56;;;29.81;20.17
65134;BME280;51713;40.700;-111.794;2022-08-01T00:36:34;84604.06;;;29.50;20.29
65134;BME280;51713;40.700;-111.794;2022-08-01T00:39:14;84604.40;;;29.72;20.24
65134;BME280;51713;40.700;-111.794;2022-08-01T00:41:45;84602.69;;;30.02;20.00
65134;BME280;51713;40.700;-111.794;2022-08-01T00:44:21;84603.22;;;29.69;20.08
65134;BME280;51713;40.700;-111.794;2022-08-01T00:46:50;84599.45;;;29.45;20.18
65134;BME280;51713;40.700;-111.794;2022-08-01T00:49:19;84598.59;;;29.13;20.42
65134;BME280;51713;40.700;-111.794;2022-08-01T00:51:49;84598.49;;;29.34;20.39
65134;BME280;51713;40.700;-111.794;2022-08-01T00:54:19;84599.08;;;29.26;20.35
65134;BME280;51713;40.700;-111.794;2022-08-01T00:56:55;84597.47;;;29.13;20.29
65134;BME280;51713;40.700;-111.794;2022-08-01T00:59:23;84597.47;;;29.09;20.29
65134;BME280;51713;40.700;-111.794;2022-08-01T01:01:58;84594.79;;;29.02;20.28
65134;BME280;51713;40.700;-111.794;2022-08-01T01:04:32;84597.19;;;29.21;20.74
65134;BME280;51713;40.700;-111.794;2022-08-01T01:07:14;84592.57;;;28.82;21.60
65134;BME280;51713;40.700;-111.794;2022-08-01T01:09:49;84595.99;;;29.09;21.16
65134;BME280;51713;40.700;-111.794;2022-08-01T01:12:27;84597.22;;;29.06;21.04
65134;BME280;51713;40.700;-111.794;2022-08-01T01:15:04;84596.32;;;28.98;20.87
65134;BME280;51713;40.700;-111.794;2022-08-01T01:17:40;84594.12;;;28.87;20.88
65134;BME280;51713;40.700;-111.794;2022-08-01T01:20:13;84595.25;;;29.07;20.78
65134;BME280;51713;40.700;-111.794;2022-08-01T01:22:53;84594.39;;;29.15;20.64
65134;BME280;51713;40.700;-111.794;2022-08-01T01:25:50;84593.96;;;29.24;20.49
65134;BME280;51713;40.700;-111.794;2022-08-01T01:28:35;84594.58;;;29.50;20.38
65134;BME280;51713;40.700;-111.794;2022-08-01T01:31:08;84592.99;;;29.27;20.48
65134;BME280;51713;40.700;-111.794;2022-08-01T01:33:40;84590.59;;;29.06;20.36
65134;BME280;51713;40.700;-111.794;2022-08-01T01:36:12;84589.28;;;28.79;20.38
65134;BME280;51713;40.700;-111.794;2022-08-01T01:38:45;84591.92;;;29.12;20.40
65134;BME280;51713;40.700;-111.794;2022-08-01T01:41:15;84591.77;;;28.92;20.48
65134;BME280;51713;40.700;-111.794;2022-08-01T01:43:46;84591.67;;;28.53;20.30
65134;BME280;51713;40.700;-111.794;2022-08-01T01:46:17;84591.81;;;28.84;20.23
65134;BME280;51713;40.700;-111.794;2022-08-01T01:48:47;84592.17;;;29.10;20.21
65134;BME280;51713;40.700;-111.794;2022-08-01T01:51:15;84594.61;;;29.07;20.21
65134;BME280;51713;40.700;-111.794;2022-08-01T01:53:44;84597.07;;;28.97;20.10
65134;BME280;51713;40.700;-111.794;2022-08-01T01:56:15;84599.25;;;29.16;20.12
65134;BME280;51713;40.700;-111.794;2022-08-01T01:58:44;84599.52;;;29.11;20.06
65134;BME280;51713;40.700;-111.794;2022-08-01T02:01:13;84601.37;;;28.74;19.94
65134;BME280;51713;40.700;-111.794;2022-08-01T02:03:43;84599.64;;;28.77;20.02
65134;BME280;51713;40.700;-111.794;2022-08-01T02:06:14;84602.57;;;28.61;20.11
65134;BME280;51713;40.700;-111.794;2022-08-01T02:08:45;84604.57;;;28.78;20.21
65134;BME280;51713;40.700;-111.794;2022-08-01T02:11:15;84609.68;;;28.29;20.34
65134;BME280;51713;40.700;-111.794;2022-08-01T02:13:44;84610.94;;;28.67;20.27
65134;BME280;51713;40.700;-111.794;2022-08-01T02:16:14;84609.11;;;28.55;20.48
65134;BME280;51713;40.700;-111.794;2022-08-01T02:18:43;84611.44;;;28.68;20.47
65134;BME280;51713;40.700;-111.794;2022-08-01T02:21:16;84612.90;;;28.69;20.64
65134;BME280;51713;40.700;-111.794;2022-08-01T02:23:48;84616.85;;;28.60;20.88
65134;BME280;51713;40.700;-111.794;2022-08-01T02:26:18;84618.29;;;28.55;20.93
65134;BME280;51713;40.700;-111.794;2022-08-01T02:28:50;84620.50;;;28.64;21.14
65134;BME280;51713;40.700;-111.794;2022-08-01T02:31:22;84623.13;;;28.60;21.66
65134;BME280;51713;40.700;-111.794;2022-08-01T02:33:54;84622.66;;;28.44;21.52
65134;BME280;51713;40.700;-111.794;2022-08-01T02:36:26;84621.84;;;28.51;21.72
65134;BME280;51713;40.700;-111.794;2022-08-01T02:38:57;84621.48;;;28.50;21.33
65134;BME280;51713;40.700;-111.794;2022-08-01T02:41:27;84624.69;;;28.47;21.25
65134;BME280;51713;40.700;-111.794;2022-08-01T02:44:00;84625.48;;;28.26;21.22
65134;BME280;51713;40.700;-111.794;2022-08-01T02:46:36;84627.46;;;28.44;20.96
65134;BME280;51713;40.700;-111.794;2022-08-01T02:49:07;84633.37;;;28.26;21.00
65134;BME280;51713;40.700;-111.794;2022-08-01T02:51:37;84637.49;;;28.48;20.95
65134;BME280;51713;40.700;-111.794;2022-08-01T02:54:08;84643.47;;;28.27;20.82
65134;BME280;51713;40.700;-111.794;2022-08-01T02:56:38;84648.30;;;28.35;20.66
65134;BME280;51713;40.700;-111.794;2022-08-01T02:59:10;84650.39;;;28.13;20.68
65134;BME280;51713;40.700;-111.794;2022-08-01T03:01:41;84652.59;;;28.28;20.76
65134;BME280;51713;40.700;-111.794;2022-08-01T03:04:11;84651.40;;;27.91;21.25
65134;BME280;51713;40.700;-111.794;2022-08-01T03:06:40;84654.16;;;28.24;21.26
65134;BME280;51713;40.700;-111.794;2022-08-01T03:09:09;84655.94;;;28.18;21.25
65134;BME280;51713;40.700;-111.794;2022-08-01T03:11:41;84658.61;;;28.64;21.19
65134;BME280;51713;40.700;-111.794;2022-08-01T03:14:12;84658.72;;;28.21;21.18
65134;BME280;51713;40.700;-111.794;2022-08-01T03:16:43;84661.02;;;28.56;21.23
65134;BME280;51713;40.700;-111.794;2022-08-01T03:19:13;84663.20;;;28.62;21.27
65134;BME280;51713;40.700;-111.794;2022-08-01T03:21:43;84666.25;;;28.26;21.43
65134;BME280;51713;40.700;-111.794;2022-08-01T03:24:13;84667.31;;;28.67;21.39
65134;BME280;51713;40.700;-111.794;2022-08-01T03:26:42;84665.84;;;28.90;21.30
65134;BME280;51713;40.700;-111.794;2022-08-01T03:29:14;84667.65;;;28.80;21.50
65134;BME280;51713;40.700;-111.794;2022-08-01T03:31:45;84668.21;;;28.36;21.53
65134;BME280;51713;40.700;-111.794;2022-08-01T03:34:14;84668.78;;;28.75;21.68
65134;BME280;51713;40.700;-111.794;2022-08-01T03:36:46;84670.98;;;28.87;21.65
65134;BME280;51713;40.700;-111.794;2022-08-01T03:39:16;84670.33;;;28.88;21.74
65134;BME280;51713;40.700;-111.794;2022-08-01T03:41:50;84672.41;;;28.85;21.81
65134;BME280;51713;40.700;-111.794;2022-08-01T03:44:24;84671.38;;;28.82;21.92
65134;BME280;51713;40.700;-111.794;2022-08-01T03:46:59;84672.15;;;28.73;22.08
65134;BME280;51713;40.700;-111.794;2022-08-01T03:49:31;84671.48;;;28.84;22.00
65134;BME280;51713;40.700;-111.794;2022-08-01T03:52:02;84672.82;;;28.99;21.98
65134;BME280;51713;40.700;-111.794;2022-08-01T03:54:34;84674.62;;;28.99;21.99
65134;BME280;51713;40.700;-111.794;2022-08-01T03:57:03;84675.11;;;28.70;22.02
65134;BME280;51713;40.700;-111.794;2022-08-01T03:59:33;84675.12;;;28.93;22.10
65134;BME280;51713;40.700;-111.794;2022-08-01T04:02:02;84679.80;;;29.07;22.00
65134;BME280;51713;40.700;-111.794;2022-08-01T04:04:31;84681.40;;;28.68;22.13
65134;BME280;51713;40.700;-111.794;2022-08-01T04:06:59;84684.89;;;29.03;22.38
65134;BME280;51713;40.700;-111.794;2022-08-01T04:09:28;84689.42;;;28.67;22.23
65134;BME280;51713;40.700;-111.794;2022-08-01T04:11:56;84692.13;;;28.95;22.10
65134;BME280;51713;40.700;-111.794;2022-08-01T04:14:23;84691.68;;;29.01;22.31
65134;BME280;51713;40.700;-111.794;2022-08-01T04:16:51;84695.85;;;29.15;22.26
65134;BME280;51713;40.700;-111.794;2022-08-01T04:19:19;84697.85;;;29.34;22.27
65134;BME280;51713;40.700;-111.794;2022-08-01T04:21:47;84701.74;;;29.14;22.29
65134;BME280;51713;40.700;-111.794;2022-08-01T04:24:18;84702.04;;;28.70;22.43
65134;BME280;51713;40.700;-111.794;2022-08-01T04:26:48;84702.58;;;28.98;22.44
65134;BME280;51713;40.700;-111.794;2022-08-01T04:29:19;84708.19;;;28.69;22.51
65134;BME280;51713;40.700;-111.794;2022-08-01T04:31:49;84706.44;;;28.66;22.87
65134;BME280;51713;40.700;-111.794;2022-08-01T04:34:22;84709.38;;;29.35;22.37
65134;BME280;51713;40.700;-111.794;2022-08-01T04:36:54;84709.45;;;28.79;22.52
65134;BME280;51713;40.700;-111.794;2022-08-01T04:39:24;84708.34;;;29.28;22.40
65134;BME280;51713;40.700;-111.794;2022-08-01T04:41:54;84705.38;;;28.96;22.61
65134;BME280;51713;40.700;-111.794;2022-08-01T04:44:23;84706.97;;;29.07;22.57
65134;BME280;51713;40.700;-111.794;2022-08-01T04:46:52;84707.61;;;28.76;22.97
65134;BME280;51713;40.700;-111.794;2022-08-01T04:49:21;84711.36;;;29.35;22.68
65134;BME280;51713;40.700;-111.794;2022-08-01T04:51:52;84711.23;;;28.99;22.55
65134;BME280;51713;40.700;-111.794;2022-08-01T04:54:21;84711.48;;;28.85;22.81
65134;BME280;51713;40.700;-111.794;2022-08-01T04:56:49;84711.57;;;29.29;22.88
65134;BME280;51713;40.700;-111.794;2022-08-01T04:59:17;84713.28;;;29.22;22.64
65134;BME280;51713;40.700;-111.794;2022-08-01T05:01:49;84711.12;;;28.95;22.65
65134;BME280;51713;40.700;-111.794;2022-08-01T05:04:17;84713.38;;;28.92;22.63
65134;BME280;51713;40.700;-111.794;2022-08-01T05:06:46;84711.60;;;29.51;22.73
65134;BME280;51713;40.700;-111.794;2022-08-01T05:09:14;84713.21;;;29.29;22.44
65134;BME280;51713;40.700;-111.794;2022-08-01T05:11:42;84712.07;;;29.22;22.08
65134;BME280;51713;40.700;-111.794;2022-08-01T05:14:10;84712.23;;;28.91;21.78
65134;BME280;51713;40.700;-111.794;2022-08-01T05:16:38;84708.52;;;29.02;21.73
65134;BME280;51713;40.700;-111.794;2022-08-01T05:19:07;84709.54;;;28.96;21.50
65134;BME280;51713;40.700;-111.794;2022-08-01T05:21:34;84710.96;;;28.91;21.25
65134;BME280;51713;40.700;-111.794;2022-08-01T05:24:03;84710.78;;;28.73;21.24
65134;BME280;51713;40.700;-111.794;2022-08-01T05:26:31;84711.30;;;28.94;20.88
65134;BME280;51713;40.700;-111.794;2022-08-01T05:28:59;84709.90;;;29.05;20.46
65134;BME280;51713;40.700;-111.794;2022-08-01T05:31:27;84709.01;;;28.24;20.54
65134;BME280;51713;40.700;-111.794;2022-08-01T05:33:56;84707.19;;;28.49;20.46
65134;BME280;51713;40.700;-111.794;2022-08-01T05:36:24;84708.99;;;28.34;20.56
65134;BME280;51713;40.700;-111.794;2022-08-01T05:38:52;84707.99;;;28.70;20.31
65134;BME280;51713;40.700;-111.794;2022-08-01T05:41:19;84706.21;;;28.64;20.14
65134;BME280;51713;40.700;-111.794;2022-08-01T05:43:47;84707.35;;;28.51;20.17
65134;BME280;51713;40.700;-111.794;2022-08-01T05:46:16;84707.24;;;28.49;20.00
65134;BME280;51713;40.700;-111.794;2022-08-01T05:48:44;84707.85;;;28.17;20.02
65134;BME280;51713;40.700;-111.794;2022-08-01T05:51:11;84706.54;;;28.44;19.90
65134;BME280;51713;40.700;-111.794;2022-08-01T05:53:39;84708.45;;;28.15;19.87
65134;BME280;51713;40.700;-111.794;2022-08-01T05:56:07;84709.63;;;28.06;19.82
65134;BME280;51713;40.700;-111.794;2022-08-01T05:58:35;84708.50;;;28.30;19.80
65134;BME280;51713;40.700;-111.794;2022-08-01T06:01:03;84712.77;;;28.11;19.85
65134;BME280;51713;40.700;-111.794;2022-08-01T06:03:31;84709.17;;;27.98;19.82
65134;BME280;51713;40.700;-111.794;2022-08-01T06:06:00;84708.63;;;28.19;19.68
65134;BME280;51713;40.700;-111.794;2022-08-01T06:08:29;84710.06;;;28.02;19.72
65134;BME280;51713;40.700;-111.794;2022-08-01T06:10:58;84708.05;;;28.01;19.68
65134;BME280;51713;40.700;-111.794;2022-08-01T06:13:26;84704.50;;;27.90;19.71
65134;BME280;51713;40.700;-111.794;2022-08-01T06:15:54;84701.99;;;28.06;19.70
65134;BME280;51713;40.700;-111.794;2022-08-01T06:18:22;84703.80;;;27.67;19.81
65134;BME280;51713;40.700;-111.794;2022-08-01T06:20:51;84705.00;;;28.23;19.76
65134;BME280;51713;40.700;-111.794;2022-08-01T06:23:20;84706.66;;;27.71;19.84
65134;BME280;51713;40.700;-111.794;2022-08-01T06:25:51;84710.42;;;27.68;19.80
65134;BME280;51713;40.700;-111.794;2022-08-01T06:28:20;84711.12;;;27.88;19.65
65134;BME280;51713;40.700;-111.794;2022-08-01T06:30:49;84711.96;;;27.63;19.80
65134;BME280;51713;40.700;-111.794;2022-08-01T06:33:17;84713.63;;;27.55;19.84
65134;BME280;51713;40.700;-111.794;2022-08-01T06:35:45;84714.23;;;27.55;19.79
65134;BME280;51713;40.700;-111.794;2022-08-01T06:38:13;84718.04;;;27.59;19.92
65134;BME280;51713;40.700;-111.794;2022-08-01T06:40:41;84721.81;;;27.38;19.81
65134;BME280;51713;40.700;-111.794;2022-08-01T06:43:10;84722.95;;;27.46;19.70
65134;BME280;51713;40.700;-111.794;2022-08-01T06:45:38;84724.76;;;27.18;19.73
65134;BME280;51713;40.700;-111.794;2022-08-01T06:48:06;84720.33;;;27.42;19.67
65134;BME280;51713;40.700;-111.794;2022-08-01T06:50:36;84718.65;;;27.39;19.64
65134;BME280;51713;40.700;-111.794;2022-08-01T06:53:04;84719.15;;;27.67;19.62
65134;BME280;51713;40.700;-111.794;2022-08-01T06:55:32;84725.88;;;27.54;19.68
65134;BME280;51713;40.700;-111.794;2022-08-01T06:58:01;84725.82;;;27.22;19.69
65134;BME280;51713;40.700;-111.794;2022-08-01T07:00:30;84726.00;;;27.22;19.67
65134;BME280;51713;40.700;-111.794;2022-08-01T07:02:58;84732.88;;;27.34;19.79
65134;BME280;51713;40.700;-111.794;2022-08-01T07:05:26;84735.97;;;26.83;19.77
65134;BME280;51713;40.700;-111.794;2022-08-01T07:07:55;84732.63;;;27.27;19.77
65134;BME280;51713;40.700;-111.794;2022-08-01T07:10:23;84730.93;;;27.12;19.85
65134;BME280;51713;40.700;-111.794;2022-08-01T07:12:52;84734.12;;;27.02;19.75
65134;BME280;51713;40.700;-111.794;2022-08-01T07:15:20;84732.57;;;26.95;19.76
65134;BME280;51713;40.700;-111.794;2022-08-01T07:17:48;84730.91;;;27.13;19.81
65134;BME280;51713;40.700;-111.794;2022-08-01T07:20:16;84731.03;;;27.14;19.78
65134;BME280;51713;40.700;-111.794;2022-08-01T07:22:44;84729.44;;;27.26;19.83
65134;BME280;51713;40.700;-111.794;2022-08-01T07:25:13;84732.03;;;27.03;19.77
65134;BME280;51713;40.700;-111.794;2022-08-01T07:27:40;84729.56;;;26.67;19.81
65134;BME280;51713;40.700;-111.794;2022-08-01T07:30:09;84732.34;;;26.96;19.77
65134;BME280;51713;40.700;-111.794;2022-08-01T07:32:37;84733.07;;;26.89;19.80
65134;BME280;51713;40.700;-111.794;2022-08-01T07:35:05;84730.96;;;26.88;19.78
65134;BME280;51713;40.700;-111.794;2022-08-01T07:37:34;84728.95;;;26.80;19.86
65134;BME280;51713;40.700;-111.794;2022-08-01T07:40:03;84729.35;;;26.73;19.94
65134;BME280;51713;40.700;-111.794;2022-08-01T07:42:32;84730.09;;;26.71;19.76
65134;BME280;51713;40.700;-111.794;2022-08-01T07:45:00;84727.99;;;26.94;19.87
65134;BME280;51713;40.700;-111.794;2022-08-01T07:47:28;84725.45;;;26.67;20.07
65134;BME280;51713;40.700;-111.794;2022-08-01T07:50:00;84725.68;;;26.66;20.39
65134;BME280;51713;40.700;-111.794;2022-08-01T07:52:28;84721.69;;;27.16;20.18
65134;BME280;51713;40.700;-111.794;2022-08-01T07:54:57;84722.49;;;26.55;20.52
65134;BME280;51713;40.700;-111.794;2022-08-01T07:57:25;84722.39;;;26.93;20.54
65134;BME280;51713;40.700;-111.794;2022-08-01T07:59:53;84719.83;;;26.98;20.55
65134;BME280;51713;40.700;-111.794;2022-08-01T08:02:21;84719.63;;;26.71;20.67
65134;BME280;51713;40.700;-111.794;2022-08-01T08:04:49;84714.94;;;26.82;20.67
65134;BME280;51713;40.700;-111.794;2022-08-01T08:07:17;84714.84;;;26.68;20.53
65134;BME280;51713;40.700;-111.794;2022-08-01T08:09:46;84715.15;;;26.67;20.45
65134;BME280;51713;40.700;-111.794;2022-08-01T08:12:14;84715.42;;;26.59;20.46
65134;BME280;51713;40.700;-111.794;2022-08-01T08:14:41;84717.21;;;26.94;20.30
65134;BME280;51713;40.700;-111.794;2022-08-01T08:17:09;84715.68;;;26.74;20.35
65134;BME280;51713;40.700;-111.794;2022-08-01T08:19:37;84711.78;;;26.50;20.33
65134;BME280;51713;40.700;-111.794;2022-08-01T08:22:07;84712.39;;;26.79;20.63
65134;BME280;51713;40.700;-111.794;2022-08-01T08:24:35;84710.42;;;26.85;20.67
65134;BME280;51713;40.700;-111.794;2022-08-01T08:27:04;84708.37;;;26.94;20.72
65134;BME280;51713;40.700;-111.794;2022-08-01T08:29:33;84707.75;;;26.96;20.72
65134;BME280;51713;40.700;-111.794;2022-08-01T08:32:02;84707.81;;;27.15;20.69
65134;BME280;51713;40.700;-111.794;2022-08-01T08:34:30;84710.41;;;26.95;20.69
65134;BME280;51713;40.700;-111.794;2022-08-01T08:36:59;84710.39;;;26.75;20.75
65134;BME280;51713;40.700;-111.794;2022-08-01T08:39:28;84710.74;;;27.08;20.73
65134;BME280;51713;40.700;-111.794;2022-08-01T08:41:58;84710.75;;;26.74;20.54
65134;BME280;51713;40.700;-111.794;2022-08-01T08:44:26;84710.35;;;26.71;20.46
65134;BME280;51713;40.700;-111.794;2022-08-01T08:46:55;84719.56;;;26.32;20.41
65134;BME280;51713;40.700;-111.794;2022-08-01T08:49:28;84720.47;;;27.10;20.31
65134;BME280;51713;40.700;-111.794;2022-08-01T08:51:59;84723.10;;;26.87;20.38
65134;BME280;51713;40.700;-111.794;2022-08-01T08:54:29;84722.08;;;26.49;20.79
65134;BME280;51713;40.700;-111.794;2022-08-01T08:56:59;84722.82;;;26.78;20.80
65134;BME280;51713;40.700;-111.794;2022-08-01T08:59:27;84722.93;;;26.50;20.93
65134;BME280;51713;40.700;-111.794;2022-08-01T09:01:56;84725.39;;;26.57;20.91
65134;BME280;51713;40.700;-111.794;2022-08-01T09:04:25;84720.17;;;26.98;20.93
65134;BME280;51713;40.700;-111.794;2022-08-01T09:06:54;84719.99;;;26.98;20.92
65134;BME280;51713;40.700;-111.794;2022-08-01T09:09:23;84716.53;;;27.16;20.70
65134;BME280;51713;40.700;-111.794;2022-08-01T09:11:51;84716.60;;;26.92;20.56
65134;BME280;51713;40.700;-111.794;2022-08-01T09:14:23;84716.86;;;26.71;20.52
65134;BME280;51713;40.700;-111.794;2022-08-01T09:17:01;84720.06;;;26.59;20.51
65134;BME280;51713;40.700;-111.794;2022-08-01T09:19:36;84720.90;;;26.51;20.49
65134;BME280;51713;40.700;-111.794;2022-08-01T09:22:05;84719.36;;;26.42;20.85
65134;BME280;51713;40.700;-111.794;2022-08-01T09:24:35;84723.00;;;26.55;20.88
65134;BME280;51713;40.700;-111.794;2022-08-01T09:27:17;84724.37;;;26.56;20.92
65134;BME280;51713;40.700;-111.794;2022-08-01T09:29:45;84725.95;;;27.02;20.97
65134;BME280;51713;40.700;-111.794;2022-08-01T09:32:14;84723.49;;;26.79;21.02
65134;BME280;51713;40.700;-111.794;2022-08-01T09:34:43;84726.07;;;26.69;21.02
65134;BME280;51713;40.700;-111.794;2022-08-01T09:37:11;84724.21;;;26.81;21.13
65134;BME280;51713;40.700;-111.794;2022-08-01T09:39:40;84722.74;;;26.80;21.03
65134;BME280;51713;40.700;-111.794;2022-08-01T09:42:20;84728.37;;;26.86;21.02
65134;BME280;51713;40.700;-111.794;2022-08-01T09:44:50;84728.10;;;26.87;20.89
65134;BME280;51713;40.700;-111.794;2022-08-01T09:47:19;84730.77;;;26.95;21.11
65134;BME280;51713;40.700;-111.794;2022-08-01T09:49:55;84730.64;;;26.73;21.42
65134;BME280;51713;40.700;-111.794;2022-08-01T09:52:25;84732.93;;;26.98;21.43
65134;BME280;51713;40.700;-111.794;2022-08-01T09:54:55;84735.51;;;27.07;21.44
65134;BME280;51713;40.700;-111.794;2022-08-01T09:57:26;84733.58;;;26.69;21.59
65134;BME280;51713;40.700;-111.794;2022-08-01T09:59:56;84734.58;;;26.75;21.46
65134;BME280;51713;40.700;-111.794;2022-08-01T10:02:30;84732.49;;;26.73;21.50
65134;BME280;51713;40.700;-111.794;2022-08-01T10:04:59;84732.66;;;27.10;21.60
65134;BME280;51713;40.700;-111.794;2022-08-01T10:07:28;84730.68;;;26.55;21.72
65134;BME280;51713;40.700;-111.794;2022-08-01T10:09:56;84730.09;;;26.79;21.93
65134;BME280;51713;40.700;-111.794;2022-08-01T10:12:36;84725.83;;;26.88;21.53
65134;BME280;51713;40.700;-111.794;2022-08-01T10:15:06;84727.59;;;27.34;21.56
65134;BME280;51713;40.700;-111.794;2022-08-01T10:17:39;84729.11;;;27.04;21.70
65134;BME280;51713;40.700;-111.794;2022-08-01T10:20:09;84734.37;;;27.15;21.78
65134;BME280;51713;40.700;-111.794;2022-08-01T10:22:38;84733.54;;;26.86;21.71
65134;BME280;51713;40.700;-111.794;2022-08-01T10:25:07;84731.32;;;27.35;21.71
65134;BME280;51713;40.700;-111.794;2022-08-01T10:27:37;84734.81;;;26.81;21.96
65134;BME280;51713;40.700;-111.794;2022-08-01T10:30:07;84734.03;;;26.90;22.10
65134;BME280;51713;40.700;-111.794;2022-08-01T10:32:36;84734.51;;;26.99;22.06
65134;BME280;51713;40.700;-111.794;2022-08-01T10:35:06;84731.94;;;27.13;21.99
65134;BME280;51713;40.700;-111.794;2022-08-01T10:37:35;84730.55;;;26.59;22.09
65134;BME280;51713;40.700;-111.794;2022-08-01T10:40:04;84730.29;;;26.99;22.17
65134;BME280;51713;40.700;-111.794;2022-08-01T10:42:34;84732.32;;;27.14;22.08
65134;BME280;51713;40.700;-111.794;2022-08-01T10:45:04;84729.55;;;27.00;22.24
65134;BME280;51713;40.700;-111.794;2022-08-01T10:47:39;84727.82;;;26.82;22.21
65134;BME280;51713;40.700;-111.794;2022-08-01T10:50:24;84728.11;;;26.50;22.50
65134;BME280;51713;40.700;-111.794;2022-08-01T10:53:12;84730.76;;;26.99;22.34
65134;BME280;51713;40.700;-111.794;2022-08-01T10:55:51;84732.03;;;27.12;22.30
65134;BME280;51713;40.700;-111.794;2022-08-01T10:58:23;84728.13;;;26.87;22.17
65134;BME280;51713;40.700;-111.794;2022-08-01T11:01:30;84731.96;;;27.18;22.36
65134;BME280;51713;40.700;-111.794;2022-08-01T11:04:03;84733.95;;;26.96;22.52
65134;BME280;51713;40.700;-111.794;2022-08-01T11:07:02;84734.73;;;27.00;22.53
65134;BME280;51713;40.700;-111.794;2022-08-01T11:09:41;84736.19;;;26.81;22.53
65134;BME280;51713;40.700;-111.794;2022-08-01T11:12:12;84742.55;;;26.82;22.60
65134;BME280;51713;40.700;-111.794;2022-08-01T11:15:29;84745.63;;;26.99;22.42
65134;BME280;51713;40.700;-111.794;2022-08-01T11:17:59;84748.44;;;27.25;22.46
65134;BME280;51713;40.700;-111.794;2022-08-01T11:20:30;84752.76;;;26.94;22.53
65134;BME280;51713;40.700;-111.794;2022-08-01T11:23:30;84752.48;;;27.34;22.61
65134;BME280;51713;40.700;-111.794;2022-08-01T11:26:16;84759.45;;;27.12;22.97
65134;BME280;51713;40.700;-111.794;2022-08-01T11:29:10;84767.03;;;27.28;22.49
65134;BME280;51713;40.700;-111.794;2022-08-01T11:31:38;84770.45;;;27.23;22.59
65134;BME280;51713;40.700;-111.794;2022-08-01T11:34:06;84775.28;;;27.27;22.59
65134;BME280;51713;40.700;-111.794;2022-08-01T11:36:35;84775.99;;;26.77;22.63
65134;BME280;51713;40.700;-111.794;2022-08-01T11:39:16;84778.82;;;27.41;22.77
65134;BME280;51713;40.700;-111.794;2022-08-01T11:41:47;84780.16;;;27.11;22.60
65134;BME280;51713;40.700;-111.794;2022-08-01T11:44:18;84780.00;;;27.21;22.51
65134;BME280;51713;40.700;-111.794;2022-08-01T11:46:49;84783.35;;;27.12;22.78
65134;BME280;51713;40.700;-111.794;2022-08-01T11:49:31;84781.75;;;27.34;22.67
65134;BME280;51713;40.700;-111.794;2022-08-01T11:52:03;84782.39;;;27.16;22.83
65134;BME280;51713;40.700;-111.794;2022-08-01T11:54:33;84781.24;;;27.26;22.70
65134;BME280;51713;40.700;-111.794;2022-08-01T11:57:04;84781.37;;;27.11;22.71
65134;BME280;51713;40.700;-111.794;2022-08-01T11:59:38;84779.83;;;27.02;23.30
65134;BME280;51713;40.700;-111.794;2022-08-01T12:02:25;84782.05;;;27.34;23.18
65134;BME280;51713;40.700;-111.794;2022-08-01T12:04:56;84778.37;;;27.42;23.32
65134;BME280;51713;40.700;-111.794;2022-08-01T12:07:27;84781.40;;;27.23;22.85
65134;BME280;51713;40.700;-111.794;2022-08-01T12:10:02;84786.60;;;27.36;23.50
65134;BME280;51713;40.700;-111.794;2022-08-01T12:12:31;84795.23;;;27.10;22.87
65134;BME280;51713;40.700;-111.794;2022-08-01T12:15:02;84800.32;;;27.28;23.07
65134;BME280;51713;40.700;-111.794;2022-08-01T12:17:36;84800.04;;;27.15;23.81
65134;BME280;51713;40.700;-111.794;2022-08-01T12:20:07;84797.25;;;26.62;23.63
65134;BME280;51713;40.700;-111.794;2022-08-01T12:22:36;84801.55;;;27.22;23.77
65134;BME280;51713;40.700;-111.794;2022-08-01T12:25:07;84804.35;;;27.11;23.02
65134;BME280;51713;40.700;-111.794;2022-08-01T12:27:36;84804.42;;;26.87;23.12
65134;BME280;51713;40.700;-111.794;2022-08-01T12:30:07;84805.80;;;27.09;23.88
65134;BME280;51713;40.700;-111.794;2022-08-01T12:32:37;84804.76;;;26.99;23.55
65134;BME280;51713;40.700;-111.794;2022-08-01T12:35:07;84805.73;;;27.00;23.44
65134;BME280;51713;40.700;-111.794;2022-08-01T12:37:36;84806.99;;;27.40;23.72
65134;BME280;51713;40.700;-111.794;2022-08-01T12:40:22;84810.61;;;27.36;24.36
65134;BME280;51713;40.700;-111.794;2022-08-01T12:42:52;84815.16;;;26.87;23.68
65134;BME280;51713;40.700;-111.794;2022-08-01T12:45:24;84814.29;;;27.46;23.60
65134;BME280;51713;40.700;-111.794;2022-08-01T12:47:53;84814.01;;;27.37;23.11
65134;BME280;51713;40.700;-111.794;2022-08-01T12:50:25;84815.20;;;27.32;24.04